Thunder radar more information blitzortung!


Radar de pluja more information rain snow radar


Visita la nostra xarxa de llocs de meteo:

Template documentation
and downloads

And another site



No particular awareness of the weather is required.    There are no Weather-warnings

Pagina Historial Weather Underground text

Diari Resum February 12, 2016 Unitats:  Mètric    Imperial   Tant
« Previous Dia
SegĂźent Dia »
Diari Setmana Mensual Anual Personalitzada
  Maxima: Minima: Media:
Temperatura: 18.1 °C 11.7 °C 15.8 °C
Punt de rosada: 10.2 °C 5.7 °C 9.6 °C
Humitat: 80 % 54 % 67 %
Wind Speed: 14.8 km/h 0.0 km/h 5 km/h
RĂ fegues de vent: 24.1 km/h - -
Vent:- - SW
Pression baro: 1011.7 hPa 1002.9 hPa -
Precipitacions: 0.0 mm    
Historical Graphs
 
 
Dades de taula per February 12, 2016
Temps Temperatura Punt de rosada Pression baro Vent Wind Speed RĂ fegues de vent Humitat Rainfall Rate (Hourly)
11:55 11.7 °C 5.7 °C 1011.7 hPa WSW 1.6 km/h 6.4 km/h 80 % 0.0 mm
12:00 12.7 °C 8.8 °C 1005.0 hPa WSW 3.2 km/h 3.2 km/h 77 % 0.0 mm
12:05 12.9 °C 8.9 °C 1006.0 hPa NW 1.9 km/h 1.9 km/h 77 % 0.0 mm
12:10 12.9 °C 8.9 °C 1006.0 hPa ENE 5.6 km/h 5.6 km/h 77 % 0.0 mm
12:15 12.9 °C 8.9 °C 1006.0 hPa NE 3.9 km/h 3.9 km/h 77 % 0.0 mm
12:20 13.0 °C 8.9 °C 1005.0 hPa NE 5.6 km/h 5.6 km/h 76 % 0.0 mm
12:25 13.1 °C 9.0 °C 1005.0 hPa NE 3.2 km/h 4.8 km/h 76 % 0.0 mm
12:30 13.4 °C 9.3 °C 1005.0 hPa NE 1.6 km/h 4.8 km/h 76 % 0.0 mm
12:35 13.6 °C 9.4 °C 1005.0 hPa NE 4.7 km/h 4.7 km/h 76 % 0.0 mm
12:40 13.8 °C 9.7 °C 1005.0 hPa NE 1.6 km/h 4.8 km/h 76 % 0.0 mm
12:45 14.0 °C 9.8 °C 1005.0 hPa NE 5.3 km/h 5.3 km/h 76 % 0.0 mm
12:50 14.2 °C 9.8 °C 1003.9 hPa SSW 11.1 km/h 11.1 km/h 75 % 0.0 mm
12:55 15.0 °C 10.0 °C 1003.9 hPa WSW 7.4 km/h 7.4 km/h 72 % 0.0 mm
13:00 15.4 °C 9.5 °C 1003.9 hPa West 4.8 km/h 12.9 km/h 68 % 0.0 mm
13:05 15.7 °C 9.8 °C 1003.9 hPa SW 8.7 km/h 8.7 km/h 68 % 0.0 mm
13:10 16.0 °C 9.7 °C 1003.9 hPa West 8.0 km/h 16.1 km/h 66 % 0.0 mm
13:15 16.3 °C 9.4 °C 1003.9 hPa West 8.0 km/h 20.9 km/h 64 % 0.0 mm
13:25 16.6 °C 9.3 °C 1003.9 hPa WSW 8.0 km/h 12.9 km/h 62 % 0.0 mm
13:30 16.8 °C 9.5 °C 1003.9 hPa WSW 4.8 km/h 12.9 km/h 62 % 0.0 mm
13:35 17.0 °C 9.2 °C 1003.9 hPa West 8.0 km/h 16.1 km/h 60 % 0.0 mm
13:40 17.3 °C 9.2 °C 1003.9 hPa WSW 8.0 km/h 17.7 km/h 59 % 0.0 mm
13:45 17.4 °C 9.1 °C 1003.9 hPa WSW 9.7 km/h 19.3 km/h 58 % 0.0 mm
13:50 17.5 °C 8.9 °C 1003.9 hPa WSW 11.3 km/h 20.9 km/h 57 % 0.0 mm
13:55 18.1 °C 9.9 °C 1003.9 hPa WSW 4.8 km/h 14.5 km/h 59 % 0.0 mm
14:00 17.8 °C 9.2 °C 1003.9 hPa WSW 9.7 km/h 24.1 km/h 57 % 0.0 mm
14:05 17.9 °C 9.3 °C 1003.6 hPa WSW 8.0 km/h 9.7 km/h 57 % 0.0 mm
14:15 18.0 °C 9.1 °C 1002.9 hPa WSW 12.9 km/h 19.3 km/h 56 % 0.0 mm
14:20 18.1 °C 8.9 °C 1002.9 hPa WSW 11.3 km/h 17.7 km/h 55 % 0.0 mm
14:25 18.0 °C 8.8 °C 1002.9 hPa WSW 9.7 km/h 16.1 km/h 55 % 0.0 mm
14:30 18.0 °C 8.8 °C 1002.9 hPa WSW 8.0 km/h 20.9 km/h 55 % 0.0 mm
14:35 18.0 °C 9.1 °C 1002.9 hPa WSW 8.0 km/h 16.1 km/h 56 % 0.0 mm
14:40 18.0 °C 8.6 °C 1003.9 hPa WSW 11.3 km/h 22.5 km/h 54 % 0.0 mm
14:45 17.9 °C 8.7 °C 1003.9 hPa WSW 8.0 km/h 20.9 km/h 55 % 0.0 mm
14:50 17.9 °C 8.7 °C 1003.6 hPa WSW 3.2 km/h 16.1 km/h 55 % 0.0 mm
14:55 17.9 °C 8.7 °C 1002.9 hPa WSW 9.7 km/h 14.5 km/h 55 % 0.0 mm
15:00 17.7 °C 8.6 °C 1002.9 hPa WSW 11.3 km/h 22.5 km/h 55 % 0.0 mm
15:05 17.6 °C 8.4 °C 1003.3 hPa WSW 12.9 km/h 24.1 km/h 55 % 0.0 mm
15:10 17.3 °C 8.4 °C 1003.9 hPa WSW 9.7 km/h 20.9 km/h 56 % 0.0 mm
15:15 17.1 °C 8.5 °C 1003.9 hPa SW 11.1 km/h 11.1 km/h 57 % 0.0 mm
15:20 17.0 °C 8.4 °C 1002.9 hPa West 9.7 km/h 9.7 km/h 57 % 0.0 mm
15:25 16.9 °C 8.8 °C 1002.9 hPa SSW 5.6 km/h 5.6 km/h 59 % 0.0 mm
15:30 16.7 °C 8.9 °C 1002.9 hPa SW 14.8 km/h 14.8 km/h 60 % 0.0 mm
15:35 16.7 °C 8.9 °C 1002.9 hPa WSW 13.0 km/h 13.0 km/h 60 % 0.0 mm
15:40 16.6 °C 8.8 °C 1002.9 hPa East 11.1 km/h 11.1 km/h 60 % 0.0 mm
15:45 16.6 °C 9.1 °C 1002.9 hPa WSW 6.9 km/h 6.9 km/h 61 % 0.0 mm
15:50 16.5 °C 8.9 °C 1003.9 hPa WSW 9.3 km/h 9.3 km/h 61 % 0.0 mm
16:00 16.5 °C 8.9 °C 1003.9 hPa SSW 9.3 km/h 9.3 km/h 61 % 0.0 mm
16:05 16.5 °C 9.2 °C 1002.9 hPa SW 13.0 km/h 13.0 km/h 62 % 0.0 mm
16:10 16.5 °C 9.2 °C 1002.9 hPa West 5.6 km/h 5.6 km/h 62 % 0.0 mm
16:15 16.5 °C 9.2 °C 1002.9 hPa SW 3.7 km/h 3.7 km/h 62 % 0.0 mm
16:20 16.5 °C 9.2 °C 1003.9 hPa West 11.1 km/h 11.1 km/h 62 % 0.0 mm
16:25 16.6 °C 9.5 °C 1003.9 hPa WSW 7.4 km/h 7.4 km/h 63 % 0.0 mm
16:30 16.6 °C 9.5 °C 1003.9 hPa WSW 3.9 km/h 3.9 km/h 63 % 0.0 mm
16:35 16.6 °C 9.5 °C 1002.9 hPa WSW 7.4 km/h 7.4 km/h 63 % 0.0 mm
16:40 16.5 °C 9.4 °C 1002.9 hPa SW 5.8 km/h 5.8 km/h 63 % 0.0 mm
16:45 16.5 °C 9.4 °C 1002.9 hPa NNE 3.2 km/h   63 % 0.0 mm
16:50 16.5 °C 9.4 °C 1002.9 hPa WSW 3.7 km/h   63 % 0.0 mm
16:55 16.5 °C 9.4 °C 1002.9 hPa Calm   3.2 km/h 63 % 0.0 mm
17:00 16.5 °C 9.4 °C 1002.9 hPa WSW 1.6 km/h 4.8 km/h 63 % 0.0 mm
17:05 16.5 °C 9.4 °C 1002.9 hPa Calm   3.2 km/h 63 % 0.0 mm
17:10 16.4 °C 9.6 °C 1002.9 hPa WSW 3.2 km/h 4.8 km/h 64 % 0.0 mm
17:15 16.4 °C 9.6 °C 1002.9 hPa WSW 8.0 km/h 9.7 km/h 64 % 0.0 mm
17:20 16.3 °C 9.5 °C 1002.9 hPa WSW 4.8 km/h 9.7 km/h 64 % 0.0 mm
17:25 16.3 °C 9.7 °C 1002.9 hPa WSW 9.7 km/h 14.5 km/h 65 % 0.0 mm
17:30 16.2 °C 9.6 °C 1002.9 hPa WSW 8.0 km/h 11.3 km/h 65 % 0.0 mm
17:35 16.1 °C 9.5 °C 1002.9 hPa WSW 3.2 km/h 8.0 km/h 65 % 0.0 mm
17:40 16.1 °C 9.7 °C 1002.9 hPa WSW 4.8 km/h 9.7 km/h 66 % 0.0 mm
17:45 16.0 °C 9.7 °C 1002.9 hPa WSW 4.8 km/h 9.7 km/h 66 % 0.0 mm
17:50 15.9 °C 9.8 °C 1002.9 hPa WSW 4.8 km/h 11.3 km/h 67 % 0.0 mm
17:55 15.9 °C 9.8 °C 1002.9 hPa WSW 3.2 km/h 8.0 km/h 67 % 0.0 mm
18:00 15.8 °C 9.7 °C 1002.9 hPa WSW 3.2 km/h 8.0 km/h 67 % 0.0 mm
18:05 15.7 °C 9.8 °C 1002.9 hPa WSW 3.2 km/h 8.0 km/h 68 % 0.0 mm
18:10 15.7 °C 9.8 °C 1002.9 hPa West 3.2 km/h 9.7 km/h 68 % 0.0 mm
18:15 15.7 °C 9.8 °C 1002.9 hPa WSW 3.2 km/h 6.4 km/h 68 % 0.0 mm
18:20 15.6 °C 9.7 °C 1002.9 hPa WSW 1.6 km/h 3.2 km/h 68 % 0.0 mm
18:25 15.6 °C 9.7 °C 1002.9 hPa Calm   4.8 km/h 68 % 0.0 mm
18:30 15.6 °C 9.7 °C 1002.9 hPa WNW 3.2 km/h 6.4 km/h 68 % 0.0 mm
18:35 15.6 °C 9.9 °C 1002.9 hPa West 3.2 km/h 8.0 km/h 69 % 0.0 mm
18:40 15.6 °C 9.7 °C 1002.9 hPa West 1.6 km/h 8.0 km/h 68 % 0.0 mm
18:45 15.7 °C 10.0 °C 1002.9 hPa West 4.8 km/h 9.7 km/h 69 % 0.0 mm
18:50 15.7 °C 10.0 °C 1002.9 hPa WSW 8.0 km/h 9.7 km/h 69 % 0.0 mm
18:55 15.7 °C 10.0 °C 1002.9 hPa WSW 1.6 km/h 8.0 km/h 69 % 0.0 mm
19:00 15.6 °C 9.9 °C 1002.9 hPa Calm   4.8 km/h 69 % 0.0 mm
19:05 15.6 °C 9.9 °C 1002.9 hPa West 1.6 km/h 3.2 km/h 69 % 0.0 mm
19:10 15.5 °C 10.1 °C 1002.9 hPa North 1.6 km/h 4.8 km/h 70 % 0.0 mm
19:15 15.3 °C 9.8 °C 1002.9 hPa NNE 3.2 km/h 4.8 km/h 70 % 0.0 mm
19:30 15.2 °C 9.8 °C 1002.9 hPa SSE 1.6 km/h 4.8 km/h 70 % 0.0 mm
19:35 15.3 °C 9.8 °C 1002.9 hPa WSW 3.2 km/h 4.8 km/h 70 % 0.0 mm
19:40 15.3 °C 10.1 °C 1002.9 hPa WSW 3.2 km/h 9.7 km/h 71 % 0.0 mm
19:50 15.4 °C 10.2 °C 1002.9 hPa WSW 1.6 km/h 6.4 km/h 71 % 0.0 mm
19:55 15.4 °C 10.2 °C 1002.9 hPa Calm   3.2 km/h 71 % 0.0 mm
20:00 15.3 °C 10.1 °C 1002.9 hPa Calm   4.8 km/h 71 % 0.0 mm
20:05 15.3 °C 10.1 °C 1002.9 hPa Calm   4.8 km/h 71 % 0.0 mm
20:10 15.3 °C 10.1 °C 1002.9 hPa SW 1.6 km/h 3.2 km/h 71 % 0.0 mm
20:15 15.3 °C 10.1 °C 1002.9 hPa Calm   3.2 km/h 71 % 0.0 mm
20:20 15.2 °C 10.0 °C 1002.9 hPa Calm   3.2 km/h 71 % 0.0 mm
20:25 15.2 °C 10.0 °C 1002.9 hPa Calm     71 % 0.0 mm
20:30 15.2 °C 10.0 °C 1002.9 hPa Calm   3.2 km/h 71 % 0.0 mm
20:35 15.2 °C 10.0 °C 1002.9 hPa Calm   4.8 km/h 71 % 0.0 mm
20:40 15.2 °C 10.0 °C 1002.9 hPa Calm   4.8 km/h 71 % 0.0 mm
20:45 15.1 °C 10.1 °C 1002.9 hPa Calm   4.8 km/h 72 % 0.0 mm
20:50 15.1 °C 10.1 °C 1002.9 hPa Calm   4.8 km/h 72 % 0.0 mm
20:55 15.2 °C 10.0 °C 1002.9 hPa WSW 3.2 km/h 9.7 km/h 71 % 0.0 mm
21:00 15.2 °C 10.0 °C 1002.9 hPa WSW 3.2 km/h 8.0 km/h 71 % 0.0 mm
21:05 15.2 °C 10.0 °C 1002.9 hPa WSW 3.2 km/h 8.0 km/h 71 % 0.0 mm
21:10 15.3 °C 10.1 °C 1002.9 hPa WSW 4.8 km/h 9.7 km/h 71 % 0.0 mm
21:15 15.4 °C 10.2 °C 1002.9 hPa SW 4.8 km/h 9.7 km/h 71 % 0.0 mm
21:20 15.5 °C 10.1 °C 1003.9 hPa SW 7.4 km/h 7.4 km/h 70 % 0.0 mm
21:25 15.4 °C 10.0 °C 1003.9 hPa Calm   1.6 km/h 70 % 0.0 mm
21:30 15.4 °C 10.2 °C 1003.9 hPa WSW 1.6 km/h 3.2 km/h 71 % 0.0 mm
21:35 15.3 °C 10.1 °C 1003.9 hPa Calm   1.6 km/h 71 % 0.0 mm
21:40 15.3 °C 10.1 °C 1003.9 hPa NW 1.6 km/h 1.6 km/h 71 % 0.0 mm
21:45 15.3 °C 10.1 °C 1003.9 hPa NW 1.6 km/h 3.2 km/h 71 % 0.0 mm
21:50 15.3 °C 10.1 °C 1003.9 hPa NW 3.2 km/h 4.8 km/h 71 % 0.0 mm
21:55 15.3 °C 10.1 °C 1003.9 hPa Calm   8.0 km/h 71 % 0.0 mm
22:00 15.4 °C 9.9 °C 1003.9 hPa WSW 7.4 km/h 7.4 km/h 70 % 0.0 mm
22:05 15.3 °C 9.8 °C 1003.9 hPa WSW 3.7 km/h 3.7 km/h 70 % 0.0 mm
22:15 15.2 °C 9.8 °C 1003.9 hPa NW 1.9 km/h 1.9 km/h 70 % 0.0 mm
22:20 15.2 °C 9.8 °C 1003.9 hPa West 3.9 km/h 3.9 km/h 70 % 0.0 mm
22:25 15.2 °C 10.0 °C 1003.9 hPa West 5.6 km/h 5.6 km/h 71 % 0.0 mm
22:30 15.2 °C 10.0 °C 1003.9 hPa WSW 7.4 km/h 7.4 km/h 71 % 0.0 mm
22:35 15.1 °C 9.9 °C 1003.9 hPa West 5.6 km/h 5.6 km/h 71 % 0.0 mm
22:40 15.1 °C 9.9 °C 1003.9 hPa WNW 7.4 km/h 7.4 km/h 71 % 0.0 mm
22:45 15.1 °C 10.1 °C 1003.9 hPa WSW 7.4 km/h 7.4 km/h 72 % 0.0 mm
22:50 15.2 °C 10.2 °C 1003.9 hPa WSW 4.8 km/h 8.0 km/h 72 % 0.0 mm
22:55 15.2 °C 10.2 °C 1003.9 hPa WSW 4.8 km/h 9.7 km/h 72 % 0.0 mm
23:00 15.2 °C 10.2 °C 1003.9 hPa West 5.6 km/h 5.6 km/h 72 % 0.0 mm
23:05 15.2 °C 10.2 °C 1002.9 hPa West 5.6 km/h 5.6 km/h 72 % 0.0 mm
23:15 15.2 °C 10.2 °C 1002.9 hPa SW 3.9 km/h 3.9 km/h 72 % 0.0 mm
23:20 15.1 °C 10.1 °C 1002.9 hPa WSW 4.2 km/h 4.2 km/h 72 % 0.0 mm
23:25 15.1 °C 10.1 °C 1002.9 hPa WSW 3.9 km/h 3.9 km/h 72 % 0.0 mm
23:30 15.1 °C 10.1 °C 1002.9 hPa SW 3.7 km/h 3.7 km/h 72 % 0.0 mm
23:40 15.0 °C 10.2 °C 1002.9 hPa WSW 5.6 km/h 5.6 km/h 73 % 0.0 mm
23:45 15.0 °C 10.2 °C 1002.9 hPa West 3.7 km/h 3.7 km/h 73 % 0.0 mm
23:50 14.9 °C 10.1 °C 1003.9 hPa West 3.9 km/h 3.9 km/h 73 % 0.0 mm
23:55 14.9 °C 10.1 °C 1003.9 hPa WNW 3.7 km/h 3.7 km/h 73 % 0.0 mm
Meteo Sesrovires
Elogis d' Weather Underground - 3.25 mb

Guio original per  Jim McMurry - jmcmurry@mwt.net Adaptat per a la plantilla per  Wim van der Kuil - Leuven-Template.eu

Trobareu la nostra informacio del temps tambe a:

Weather Underground

AWEKAS